Time;durP1;ratioP1;P1;durP2;ratioP2;P2;SDS_P1;SDS_P2;PMS_P1;PMS_P2;Temp;Humidity;BMP_temperature;BMP_pressure;BME280_temperature;BME280_humidity;BME280_pressure;Samples;Min_cycle;Max_cycle;Signal;HPM_P1;HPM_P2
2023/10/04 00:02:23;;;;;;;16.50;9.60;;;;;;;13.89;53.93;100834.45;105251;1260;61587;-61
2023/10/04 00:04:51;;;;;;;20.30;10.30;;;;;;;13.88;53.68;100831.71;105247;1258;63737;-61
2023/10/04 00:07:19;;;;;;;17.70;9.20;;;;;;;13.87;53.66;100833.60;105364;1260;59772;-61
2023/10/04 00:09:46;;;;;;;17.20;10.50;;;;;;;13.86;53.73;100835.46;105238;1255;59659;-61
2023/10/04 00:12:14;;;;;;;20.10;11.40;;;;;;;13.85;53.66;100831.48;105250;1260;64108;-62
2023/10/04 00:14:41;;;;;;;19.10;10.30;;;;;;;13.82;53.64;100831.66;105239;1255;61390;-63
2023/10/04 00:17:09;;;;;;;16.90;11.00;;;;;;;13.81;53.56;100827.23;105231;1260;62532;-64
2023/10/04 00:19:37;;;;;;;20.80;10.90;;;;;;;13.79;53.63;100818.40;105205;1254;59691;-66
2023/10/04 00:22:04;;;;;;;15.70;9.70;;;;;;;13.76;53.74;100817.39;105308;1254;59592;-66
2023/10/04 00:24:32;;;;;;;17.70;9.60;;;;;;;13.74;53.71;100815.63;105156;1259;64130;-66
2023/10/04 00:26:59;;;;;;;17.80;9.40;;;;;;;13.78;53.76;100815.80;105226;1260;60221;-66
2023/10/04 00:29:27;;;;;;;23.70;10.00;;;;;;;13.83;53.74;100815.05;105234;1260;62470;-66
2023/10/04 00:31:54;;;;;;;17.50;9.60;;;;;;;13.85;53.76;100812.96;105267;1258;59659;-66
2023/10/04 00:34:22;;;;;;;19.20;9.30;;;;;;;13.85;53.77;100812.55;105918;1257;59736;-61
2023/10/04 00:36:50;;;;;;;18.30;9.40;;;;;;;13.87;53.71;100808.35;105853;1260;64115;-64
2023/10/04 00:39:18;;;;;;;18.80;10.80;;;;;;;13.87;53.61;100809.96;105265;1255;61383;-68
2023/10/04 00:41:46;;;;;;;18.50;10.80;;;;;;;13.86;53.68;100805.59;105276;1261;62543;-66
2023/10/04 00:44:14;;;;;;;20.60;10.20;;;;;;;13.85;53.74;100803.92;105436;1259;59717;-66
2023/10/04 00:46:45;;;;;;;17.30;10.40;;;;;;;13.83;53.93;100801.66;105262;1255;59835;-67
2023/10/04 00:49:13;;;;;;;15.00;10.00;;;;;;;13.79;53.96;100798.99;105373;1255;64595;-69
2023/10/04 00:51:40;;;;;;;23.20;10.50;;;;;;;13.74;54.02;100800.79;105347;1254;61345;-68
2023/10/04 00:54:10;;;;;;;21.90;10.20;;;;;;;13.71;54.13;100801.75;105233;1259;64191;-67
2023/10/04 00:56:38;;;;;;;14.70;8.90;;;;;;;13.68;54.35;100794.83;105329;1260;59726;-68
2023/10/04 00:59:07;;;;;;;18.40;10.20;;;;;;;13.63;54.63;100799.46;106225;1254;59669;-67
2023/10/04 01:01:35;;;;;;;24.70;9.00;;;;;;;13.60;54.90;100805.11;105233;1260;64652;-67
2023/10/04 01:04:05;;;;;;;19.40;9.70;;;;;;;13.62;55.02;100799.99;105185;1261;60674;-68
2023/10/04 01:06:35;;;;;;;18.60;9.10;;;;;;;13.66;55.08;100795.33;105571;1257;62638;-68
2023/10/04 01:09:06;;;;;;;18.50;9.90;;;;;;;13.68;55.21;100791.16;105421;1254;59824;-69
2023/10/04 01:11:35;;;;;;;19.60;10.20;;;;;;;13.67;55.23;100787.90;105656;1254;60014;-68
2023/10/04 01:14:15;;;;;;;17.00;9.90;;;;;;;13.66;55.27;100789.91;105555;1258;64124;-69
2023/10/04 01:16:42;;;;;;;17.00;9.10;;;;;;;13.64;55.30;100790.59;105152;1254;61842;-69
2023/10/04 01:19:14;;;;;;;17.30;9.90;;;;;;;13.61;55.33;100790.30;105259;1254;63752;-70
2023/10/04 01:21:42;;;;;;;17.90;11.00;;;;;;;13.57;55.49;100790.48;105364;1259;59752;-67
2023/10/04 01:24:10;;;;;;;17.70;10.10;;;;;;;13.52;55.58;100790.23;105268;1254;59524;-68
2023/10/04 01:26:38;;;;;;;19.10;10.50;;;;;;;13.46;55.73;100788.39;105367;1259;64044;-69
2023/10/04 01:29:07;;;;;;;15.70;9.30;;;;;;;13.40;55.99;100787.20;105221;1260;61350;-66
2023/10/04 01:31:35;;;;;;;15.00;8.90;;;;;;;13.35;56.31;100783.40;105497;1257;62454;-63
2023/10/04 01:34:06;;;;;;;15.40;8.50;;;;;;;13.36;56.39;100785.20;105499;1260;59816;-65
2023/10/04 01:36:36;;;;;;;14.40;8.90;;;;;;;13.40;56.42;100785.25;105490;1260;59601;-66
2023/10/04 01:39:08;;;;;;;17.50;10.20;;;;;;;13.40;56.44;100784.35;105624;1254;64042;-66
2023/10/04 01:41:38;;;;;;;18.40;8.90;;;;;;;13.38;56.59;100786.13;105622;1254;61412;-67
2023/10/04 01:44:09;;;;;;;19.20;9.50;;;;;;;13.37;56.56;100785.17;105395;1264;63852;-67
2023/10/04 01:46:38;;;;;;;16.80;9.00;;;;;;;13.35;56.59;100780.69;105259;1256;60564;-67
2023/10/04 01:49:08;;;;;;;18.50;9.20;;;;;;;13.34;56.46;100776.95;105813;1254;60550;-66
2023/10/04 01:51:36;;;;;;;15.80;9.40;;;;;;;13.32;56.34;100772.52;105275;1257;64950;-64
2023/10/04 01:54:04;;;;;;;21.30;10.80;;;;;;;13.31;55.91;100772.42;105302;1254;61843;-68
2023/10/04 01:56:32;;;;;;;18.00;9.60;;;;;;;13.31;55.99;100767.66;105680;1257;63709;-65
2023/10/04 01:59:00;;;;;;;21.10;10.20;;;;;;;13.30;55.77;100764.94;105120;1260;60451;-63
2023/10/04 02:01:28;;;;;;;19.10;9.70;;;;;;;13.29;55.64;100763.59;105724;1257;60494;-62
2023/10/04 02:03:55;;;;;;;19.50;9.60;;;;;;;13.28;55.47;100759.61;105336;1260;63620;-67
2023/10/04 02:06:23;;;;;;;20.60;9.40;;;;;;;13.28;55.53;100762.42;105864;1257;61429;-66
2023/10/04 02:08:51;;;;;;;19.30;9.00;;;;;;;13.28;55.62;100759.14;105383;1257;62535;-66
2023/10/04 02:11:21;;;;;;;21.20;9.80;;;;;;;13.31;55.56;100759.52;105246;1257;60499;-66
2023/10/04 02:13:50;;;;;;;19.60;9.80;;;;;;;13.37;55.23;100751.45;105933;1258;60441;-68
2023/10/04 02:16:19;;;;;;;17.90;10.00;;;;;;;13.40;55.15;100748.92;105265;1260;64887;-65
2023/10/04 02:18:48;;;;;;;16.50;9.70;;;;;;;13.42;55.27;100744.57;105272;1254;61422;-65
2023/10/04 02:21:17;;;;;;;18.40;9.50;;;;;;;13.43;55.25;100739.89;106086;1260;62610;-66
2023/10/04 02:23:45;;;;;;;17.80;10.20;;;;;;;13.41;55.19;100734.41;105318;1257;60622;-67
2023/10/04 02:26:13;;;;;;;23.20;10.60;;;;;;;13.39;55.01;100729.67;105534;1251;60521;-65
2023/10/04 02:28:40;;;;;;;18.40;9.20;;;;;;;13.36;55.19;100725.63;105448;1256;64934;-67
2023/10/04 02:31:08;;;;;;;21.50;9.70;;;;;;;13.33;55.11;100723.83;105458;1257;71044;-67
2023/10/04 02:33:38;;;;;;;19.50;10.20;;;;;;;13.31;55.14;100721.02;105726;1256;62715;-66
2023/10/04 02:36:09;;;;;;;14.80;9.00;;;;;;;13.28;55.10;100718.27;105529;1251;60555;-67
2023/10/04 02:38:37;;;;;;;19.50;9.40;;;;;;;13.24;55.14;100715.20;105673;1256;60421;-68
2023/10/04 02:41:05;;;;;;;20.60;9.90;;;;;;;13.20;55.29;100712.34;105470;1257;65075;-69
2023/10/04 02:43:35;;;;;;;16.80;9.70;;;;;;;13.16;55.29;100707.59;106581;1254;61811;-65
2023/10/04 02:46:03;;;;;;;18.10;9.30;;;;;;;13.13;55.32;100707.23;105761;1254;63685;-66
2023/10/04 02:48:34;;;;;;;20.20;9.00;;;;;;;13.15;55.40;100703.00;105384;1256;60565;-65
2023/10/04 02:51:04;;;;;;;16.50;8.90;;;;;;;13.18;55.43;100704.77;105627;1256;60564;-67
2023/10/04 02:53:32;;;;;;;18.60;9.50;;;;;;;13.19;55.49;100704.65;105369;1257;64951;-67
2023/10/04 02:56:06;;;;;;;17.80;9.80;;;;;;;13.20;55.55;100703.77;105244;1257;60371;-68
2023/10/04 02:58:37;;;;;;;21.20;10.20;;;;;;;13.19;55.69;100700.84;106267;1251;64263;-68
2023/10/04 03:01:05;;;;;;;23.00;10.00;;;;;;;13.19;55.55;100699.06;105674;1256;60542;-68
2023/10/04 03:03:35;;;;;;;16.80;10.00;;;;;;;13.19;55.41;100702.80;105736;1255;60440;-70
2023/10/04 03:06:04;;;;;;;17.00;9.40;;;;;;;13.18;55.35;100704.66;105572;1254;64880;-65
2023/10/04 03:08:32;;;;;;;23.20;10.20;;;;;;;13.18;55.18;100705.02;105346;1259;60507;-67
2023/10/04 03:11:03;;;;;;;17.00;10.30;;;;;;;13.18;54.96;100701.63;105515;1254;63667;-67
2023/10/04 03:13:34;;;;;;;17.40;10.60;;;;;;;13.18;54.76;100702.52;105619;1254;60607;-64
2023/10/04 03:16:04;;;;;;;18.40;9.70;;;;;;;13.17;54.70;100694.67;105669;1251;60337;-66
2023/10/04 03:18:33;;;;;;;19.10;9.30;;;;;;;13.16;54.63;100692.10;105709;1254;64918;-60
2023/10/04 03:23:35;;;;;;;17.90;9.80;;;;;;;13.12;54.49;100685.58;105434;1254;63748;-64
2023/10/04 03:26:12;;;;;;;19.80;9.90;;;;;;;13.10;54.37;100685.43;106246;1254;60453;-64
2023/10/04 03:28:41;;;;;;;20.90;10.00;;;;;;;13.09;54.45;100684.31;105384;1251;60475;-66
2023/10/04 03:31:14;;;;;;;20.20;9.50;;;;;;;13.08;54.47;100679.96;105430;1251;63645;-64
2023/10/04 03:33:45;;;;;;;;;;;;;;;13.13;54.35;100679.52;105413;1254;61409;-68
2023/10/04 03:36:18;;;;;;;17.20;8.90;;;;;;;13.22;54.26;100673.16;106235;1253;63673;-66
2023/10/04 03:38:51;;;;;;;18.60;9.60;;;;;;;13.29;54.24;100668.83;106102;1254;60549;-65
2023/10/04 03:41:19;;;;;;;19.00;9.60;;;;;;;13.32;54.11;100667.66;105877;1257;60450;-64
2023/10/04 03:43:47;;;;;;;18.70;9.40;;;;;;;13.34;53.99;100665.23;106152;1251;64890;-65
2023/10/04 03:46:18;;;;;;;18.60;9.70;;;;;;;13.36;54.06;100658.05;105532;1251;61385;-66
2023/10/04 03:48:51;;;;;;;21.60;10.90;;;;;;;13.37;54.00;100653.65;105508;1256;63674;-67
2023/10/04 03:51:20;;;;;;;17.00;9.50;;;;;;;13.37;53.83;100651.41;105354;1254;60536;-67
2023/10/04 03:53:50;;;;;;;18.50;9.20;;;;;;;13.35;53.79;100649.48;105286;1260;60414;-66
2023/10/04 03:56:21;;;;;;;17.20;9.90;;;;;;;13.32;53.87;100654.98;105370;1251;63739;-66
2023/10/04 03:58:50;;;;;;;22.20;10.40;;;;;;;13.29;53.97;100661.23;105560;1256;61319;-66
2023/10/04 04:01:20;;;;;;;19.50;10.50;;;;;;;13.26;54.08;100659.77;105465;1256;62795;-56
2023/10/04 04:03:50;;;;;;;18.70;9.40;;;;;;;13.23;54.26;100662.86;106013;1251;60872;-59
2023/10/04 04:06:18;;;;;;;20.80;10.60;;;;;;;13.20;54.32;100662.86;106151;1254;60568;-58
2023/10/04 04:08:47;;;;;;;19.20;10.40;;;;;;;13.18;54.51;100666.58;105338;1251;64902;-56
2023/10/04 04:11:15;;;;;;;20.30;10.30;;;;;;;13.14;54.60;100666.36;105592;1256;60677;-68
2023/10/04 04:13:45;;;;;;;18.90;9.60;;;;;;;13.11;54.58;100665.46;105575;1254;63843;-68
2023/10/04 04:16:16;;;;;;;19.80;10.00;;;;;;;13.08;54.60;100662.16;105533;1253;60424;-68
2023/10/04 04:18:47;;;;;;;23.50;9.30;;;;;;;13.08;54.82;100662.34;105477;1254;60786;-69
2023/10/04 04:21:16;;;;;;;16.80;8.60;;;;;;;13.13;54.73;100670.50;105525;1254;64943;-69
2023/10/04 04:23:44;;;;;;;17.40;9.30;;;;;;;13.22;54.59;100669.73;105512;1251;61353;-67
2023/10/04 04:26:13;;;;;;;20.30;10.00;;;;;;;13.28;54.42;100672.93;106228;1253;74784;-66
2023/10/04 04:28:41;;;;;;;15.40;8.60;;;;;;;13.32;54.04;100670.85;105353;1255;60490;-62
2023/10/04 04:31:15;;;;;;;18.10;9.00;;;;;;;13.37;53.61;100668.99;105392;1256;60305;-65
2023/10/04 04:33:45;;;;;;;14.90;8.40;;;;;;;13.43;53.41;100662.92;105598;1251;64945;-60
2023/10/04 04:36:21;;;;;;;16.30;8.70;;;;;;;13.47;53.31;100656.72;105721;1251;61358;-63
2023/10/04 04:38:50;;;;;;;14.90;8.40;;;;;;;13.50;53.17;100656.59;105519;1254;62492;-60
2023/10/04 04:41:24;;;;;;;17.10;9.30;;;;;;;13.53;53.10;100655.98;106091;1254;60571;-60
2023/10/04 04:43:53;;;;;;;12.70;3.20;;;;;;;13.56;53.05;100653.45;106084;1257;60428;-63
2023/10/04 04:46:23;;;;;;;17.30;9.00;;;;;;;13.59;53.00;100648.78;105992;1251;64920;-60
2023/10/04 04:48:54;;;;;;;17.60;9.00;;;;;;;13.62;52.95;100644.98;106303;1254;61325;-61
2023/10/04 04:51:24;;;;;;;17.90;9.10;;;;;;;13.66;52.87;100649.21;105974;1253;63697;-61
2023/10/04 04:53:54;;;;;;;16.70;9.40;;;;;;;13.70;52.75;100650.48;105385;1257;60554;-60
2023/10/04 04:56:25;;;;;;;18.00;8.90;;;;;;;13.73;52.61;100647.34;105412;1257;61885;-59
2023/10/04 04:58:56;;;;;;;21.50;8.70;;;;;;;13.78;52.63;100643.20;106047;1251;65414;-59
2023/10/04 05:01:33;;;;;;;17.60;9.00;;;;;;;13.83;52.48;100643.10;105963;1254;60530;-62
2023/10/04 05:04:07;;;;;;;16.60;8.70;;;;;;;13.87;52.49;100643.47;105831;1254;64253;-60
2023/10/04 05:06:36;;;;;;;16.70;8.40;;;;;;;13.92;52.52;100642.85;105594;1253;60632;-66
2023/10/04 05:09:05;;;;;;;16.70;8.50;;;;;;;13.97;52.50;100639.40;105754;1254;60366;-62
2023/10/04 05:11:36;;;;;;;17.90;9.00;;;;;;;14.01;52.41;100633.70;105838;1254;64873;-63
2023/10/04 05:14:06;;;;;;;15.80;9.20;;;;;;;14.05;52.32;100630.35;105676;1253;60530;-64
2023/10/04 05:16:34;;;;;;;20.00;9.20;;;;;;;14.10;52.16;100635.55;105375;1254;63712;-61
2023/10/04 05:19:07;;;;;;;17.40;8.90;;;;;;;14.14;51.99;100640.66;105542;1254;60465;-65
2023/10/04 05:21:36;;;;;;;19.10;8.40;;;;;;;14.19;52.04;100644.13;105693;1251;60405;-68
2023/10/04 05:24:05;;;;;;;18.10;8.40;;;;;;;14.23;51.91;100646.91;105777;1251;63705;-68
2023/10/04 05:26:35;;;;;;;20.60;9.10;;;;;;;14.28;51.90;100643.30;105827;1251;61816;-67
2023/10/04 05:29:03;;;;;;;15.80;9.00;;;;;;;14.33;51.79;100640.23;105453;1257;63697;-61
2023/10/04 05:31:31;;;;;;;20.10;9.50;;;;;;;14.39;51.69;100637.19;105762;1251;60341;-57
2023/10/04 05:33:59;;;;;;;16.80;8.20;;;;;;;14.46;51.72;100641.13;105855;1253;60370;-57
2023/10/04 05:36:27;;;;;;;15.80;8.50;;;;;;;14.53;51.37;100639.23;106013;1254;64861;-57
2023/10/04 05:38:54;;;;;;;15.20;8.40;;;;;;;14.59;51.05;100633.91;105519;1256;60286;-56
2023/10/04 05:41:22;;;;;;;18.30;8.30;;;;;;;14.67;51.01;100635.36;105502;1256;62541;-54
2023/10/04 05:43:50;;;;;;;16.00;8.90;;;;;;;14.75;50.96;100634.21;106175;1252;60534;-53
2023/10/04 05:46:18;;;;;;;16.50;9.40;;;;;;;14.84;50.74;100633.02;105394;1257;60440;-62
2023/10/04 05:48:46;;;;;;;18.70;9.10;;;;;;;14.94;50.67;100626.98;105404;1252;64885;-60
2023/10/04 05:51:16;;;;;;;18.80;9.10;;;;;;;15.04;50.49;100619.33;109193;1251;61358;-56
2023/10/04 05:53:46;;;;;;;22.30;9.10;;;;;;;15.16;50.54;100611.13;105639;1254;62411;-58
2023/10/04 05:56:13;;;;;;;21.80;9.20;;;;;;;15.28;50.51;100605.93;107182;1251;60523;-56
2023/10/04 05:58:40;;;;;;;19.00;9.30;;;;;;;15.41;50.37;100605.38;105430;1253;60624;-60
2023/10/04 06:01:13;;;;;;;17.30;9.60;;;;;;;15.54;50.30;100605.50;105318;1256;64913;-61
2023/10/04 06:03:41;;;;;;;14.80;9.00;;;;;;;15.67;49.94;100606.49;105748;1255;60480;-55
2023/10/04 06:06:09;;;;;;;19.00;8.70;;;;;;;15.80;49.53;100610.08;105349;1254;64110;-56
2023/10/04 06:08:38;;;;;;;18.10;8.70;;;;;;;15.90;48.99;100622.40;105331;1252;60561;-58
2023/10/04 06:11:05;;;;;;;21.00;9.40;;;;;;;15.98;48.91;100630.76;105470;1254;60658;-59
2023/10/04 06:13:34;;;;;;;14.80;7.50;;;;;;;16.04;48.71;100632.84;105408;1256;64915;-54
2023/10/04 06:16:02;;;;;;;17.70;8.80;;;;;;;16.10;48.70;100631.76;105827;1256;60589;-60
2023/10/04 06:18:30;;;;;;;17.70;8.60;;;;;;;16.13;48.39;100628.73;105388;1257;63734;-56
2023/10/04 06:20:59;;;;;;;14.10;8.30;;;;;;;16.14;48.30;100619.59;109365;1251;58505;-56
2023/10/04 06:23:30;;;;;;;17.60;9.10;;;;;;;16.17;48.50;100619.70;109260;1254;58449;-59
2023/10/04 06:25:59;;;;;;;18.20;8.70;;;;;;;16.21;48.68;100617.02;109342;1251;64956;-58
2023/10/04 06:28:28;;;;;;;22.60;9.20;;;;;;;16.26;48.58;100622.46;109363;1251;60201;-60
2023/10/04 06:30:56;;;;;;;17.90;8.40;;;;;;;16.32;48.61;100621.89;109375;1253;64159;-64
2023/10/04 06:33:25;;;;;;;19.30;9.40;;;;;;;16.39;48.44;100619.73;107515;1253;59425;-55
2023/10/04 06:35:52;;;;;;;20.70;9.20;;;;;;;16.45;48.36;100618.63;106021;1253;61730;-57
2023/10/04 06:38:20;;;;;;;16.10;8.20;;;;;;;16.50;48.27;100618.83;105474;1252;63699;-55
2023/10/04 06:40:48;;;;;;;21.30;8.50;;;;;;;16.56;48.38;100617.56;105985;1257;61300;-59
2023/10/04 06:43:16;;;;;;;14.40;8.10;;;;;;;16.60;48.30;100618.52;105422;1255;64257;-54
2023/10/04 06:45:43;;;;;;;17.50;8.50;;;;;;;16.65;48.27;100617.36;105285;1254;60475;-59
2023/10/04 06:48:11;;;;;;;21.70;8.40;;;;;;;16.67;48.05;100608.77;105327;1257;60366;-59
2023/10/04 06:50:39;;;;;;;15.60;8.70;;;;;;;16.71;48.10;100609.66;105494;1256;65431;-58
2023/10/04 06:53:09;;;;;;;18.60;9.00;;;;;;;16.76;48.05;100611.38;105419;1254;61365;-57
2023/10/04 06:55:37;;;;;;;17.30;9.40;;;;;;;16.81;47.95;100610.56;105543;1254;63698;-58
2023/10/04 06:58:08;;;;;;;14.30;8.30;;;;;;;16.85;48.03;100611.72;109346;1251;58502;-55
2023/10/04 07:00:40;;;;;;;15.80;8.90;;;;;;;16.91;48.00;100610.65;109281;1251;58215;-58
2023/10/04 07:03:09;;;;;;;20.60;9.00;;;;;;;16.97;47.80;100614.11;109306;1251;64979;-56
2023/10/04 07:05:39;;;;;;;16.20;8.50;;;;;;;17.05;47.71;100607.63;107194;1253;64081;-56
2023/10/04 07:08:15;;;;;;;18.10;8.40;;;;;;;17.13;47.36;100603.58;109274;1254;63726;-56
2023/10/04 07:10:44;;;;;;;16.30;7.70;;;;;;;17.22;47.46;100601.55;109332;1252;58104;-57
2023/10/04 07:13:12;;;;;;;15.10;8.50;;;;;;;17.35;47.72;100594.02;106084;1251;60615;-55
2023/10/04 07:15:41;;;;;;;20.30;8.50;;;;;;;17.48;46.95;100595.15;105366;1252;74787;-56
2023/10/04 07:18:11;;;;;;;20.30;9.50;;;;;;;17.55;46.95;100594.35;105516;1256;61425;-55
2023/10/04 07:20:39;;;;;;;19.30;9.30;;;;;;;17.62;47.15;100593.58;105645;1254;62604;-55
2023/10/04 07:23:09;;;;;;;16.60;8.40;;;;;;;17.70;47.02;100594.41;105410;1252;60532;-54
2023/10/04 07:25:38;;;;;;;15.70;9.50;;;;;;;17.77;47.19;100595.20;105847;1251;60678;-56
2023/10/04 07:28:08;;;;;;;15.30;8.80;;;;;;;17.86;47.04;100593.56;105624;1256;64912;-56
2023/10/04 07:30:39;;;;;;;16.50;8.70;;;;;;;17.93;46.69;100595.87;105712;1254;61430;-59
2023/10/04 07:33:07;;;;;;;18.20;10.00;;;;;;;17.99;46.83;100601.26;105616;1254;64146;-54
2023/10/04 07:35:35;;;;;;;16.10;8.80;;;;;;;18.05;46.84;100602.89;105491;1252;60568;-56
2023/10/04 07:38:05;;;;;;;21.00;8.90;;;;;;;18.11;46.76;100609.42;105543;1251;60528;-56
2023/10/04 07:40:33;;;;;;;16.50;7.60;;;;;;;18.15;46.81;100610.33;105842;1252;63705;-60
2023/10/04 07:43:01;;;;;;;15.00;8.00;;;;;;;18.21;46.97;100609.91;105348;1254;61341;-55
2023/10/04 07:45:30;;;;;;;16.10;9.10;;;;;;;18.27;46.46;100613.71;106638;1253;63722;-56
2023/10/04 07:48:00;;;;;;;17.90;8.20;;;;;;;18.30;46.44;100611.77;105432;1254;60562;-58
2023/10/04 07:50:28;;;;;;;18.60;9.20;;;;;;;18.33;46.69;100618.52;106111;1254;60500;-55
2023/10/04 07:53:04;;;;;;;13.70;8.20;;;;;;;18.40;46.65;100627.92;105995;1251;63699;-56
2023/10/04 07:55:33;;;;;;;17.40;8.50;;;;;;;18.48;46.46;100629.55;106039;1254;61999;-58
2023/10/04 07:58:05;;;;;;;16.00;9.50;;;;;;;18.58;46.56;100629.33;105858;1256;62592;-57
2023/10/04 08:00:37;;;;;;;16.20;8.90;;;;;;;18.72;46.31;100634.03;105774;1251;60516;-58
2023/10/04 08:03:06;;;;;;;16.20;8.20;;;;;;;18.85;45.70;100645.34;105877;1254;60635;-61
2023/10/04 08:05:41;;;;;;;17.30;8.00;;;;;;;18.95;45.37;100651.70;105598;1254;64946;-59
2023/10/04 08:08:08;;;;;;;19.60;9.20;;;;;;;19.01;45.26;100651.77;105481;1251;61786;-56
2023/10/04 08:10:36;;;;;;;17.40;7.50;;;;;;;19.07;45.32;100645.39;105497;1253;63806;-56
2023/10/04 08:13:04;;;;;;;14.40;8.30;;;;;;;19.19;45.53;100644.32;105576;1257;61718;-55
2023/10/04 08:15:35;;;;;;;17.40;9.10;;;;;;;19.31;45.49;100641.65;105655;1256;60482;-56
2023/10/04 08:18:04;;;;;;;19.90;8.70;;;;;;;19.43;45.62;100640.14;105543;1251;65083;-55
2023/10/04 08:20:33;;;;;;;20.40;9.00;;;;;;;19.52;45.64;100644.98;105783;1256;60471;-56
2023/10/04 08:23:04;;;;;;;17.10;8.20;;;;;;;19.59;45.27;100651.80;105444;1251;64498;-56
2023/10/04 08:25:34;;;;;;;18.70;8.20;;;;;;;19.61;45.04;100663.47;105718;1254;61233;-59
2023/10/04 08:28:03;;;;;;;13.10;7.90;;;;;;;19.62;45.24;100665.73;105796;1254;60921;-58
2023/10/04 08:30:31;;;;;;;18.30;8.30;;;;;;;19.61;45.48;100656.02;106284;1251;73591;-59
2023/10/04 08:32:59;;;;;;;15.00;8.50;;;;;;;19.63;45.76;100660.42;105340;1256;62525;-57
2023/10/04 08:35:28;;;;;;;17.20;8.20;;;;;;;19.68;46.01;100665.97;106611;1256;62596;-58
2023/10/04 08:37:58;;;;;;;18.60;8.40;;;;;;;19.72;46.28;100671.01;105825;1256;61007;-60
2023/10/04 08:40:28;;;;;;;15.10;7.60;;;;;;;19.76;46.48;100679.33;105872;1251;60884;-60
2023/10/04 08:42:56;;;;;;;15.30;8.00;;;;;;;19.79;46.33;100676.81;105913;1251;65663;-58
2023/10/04 08:45:27;;;;;;;16.00;7.70;;;;;;;19.81;46.36;100677.05;106053;1254;64524;-57
2023/10/04 08:47:56;;;;;;;22.40;8.20;;;;;;;19.84;46.41;100673.54;105786;1254;65764;-61
2023/10/04 08:50:40;;;;;;;13.70;7.50;;;;;;;19.86;46.57;100674.40;109342;1252;58490;-61
2023/10/04 08:53:25;;;;;;;15.40;8.60;;;;;;;19.89;46.47;100676.88;105693;1251;60425;-56
2023/10/04 08:56:01;;;;;;;15.80;7.70;;;;;;;19.94;46.53;100681.69;109271;1251;74750;-58
2023/10/04 08:58:28;;;;;;;13.40;6.90;;;;;;;20.00;46.87;100678.52;108423;1254;64161;-59
2023/10/04 09:00:56;;;;;;;11.20;7.20;;;;;;;20.07;46.92;100685.34;105437;1254;64011;-60
2023/10/04 09:03:24;;;;;;;16.90;7.30;;;;;;;20.11;46.99;100680.61;105866;1254;60517;-58
2023/10/04 09:05:54;;;;;;;17.20;7.60;;;;;;;20.13;47.12;100673.11;105981;1253;60496;-61
2023/10/04 09:08:24;;;;;;;10.30;6.80;;;;;;;20.12;47.24;100668.86;105935;1251;63777;-61
2023/10/04 09:10:55;;;;;;;15.10;6.90;;;;;;;20.11;47.23;100675.43;105372;1259;60621;-59
2023/10/04 09:13:23;;;;;;;13.90;7.40;;;;;;;20.09;47.32;100676.21;105424;1252;73676;-56
2023/10/04 09:15:51;;;;;;;14.30;7.70;;;;;;;20.07;47.47;100677.86;105927;1256;60553;-56
2023/10/04 09:18:26;;;;;;;16.30;7.00;;;;;;;20.06;47.70;100666.02;106124;1257;60633;-58
2023/10/04 09:20:54;;;;;;;15.60;7.20;;;;;;;20.07;47.86;100666.64;105904;1251;65105;-58
2023/10/04 09:23:22;;;;;;;16.00;7.20;;;;;;;20.08;47.98;100669.55;106041;1251;61561;-60
2023/10/04 09:25:55;;;;;;;11.50;6.40;;;;;;;20.09;48.05;100667.52;105966;1257;62622;-60
2023/10/04 09:28:42;;;;;;;12.80;6.40;;;;;;;20.07;48.11;100670.62;109292;1253;58431;-60
2023/10/04 09:31:10;;;;;;;14.60;6.70;;;;;;;20.04;48.20;100673.23;109341;1253;58533;-60
2023/10/04 09:33:38;;;;;;;14.20;6.80;;;;;;;19.99;48.38;100672.78;109343;1253;76085;-59
2023/10/04 09:36:06;;;;;;;12.30;6.80;;;;;;;19.97;48.57;100678.96;109373;1251;62471;-61
2023/10/04 09:38:35;;;;;;;13.80;7.10;;;;;;;19.98;48.51;100691.18;109304;1254;64653;-61
2023/10/04 09:41:03;;;;;;;15.00;6.90;;;;;;;19.98;48.48;100695.75;109271;1251;60645;-58
2023/10/04 09:43:35;;;;;;;12.80;6.80;;;;;;;19.98;48.53;100692.65;109381;1251;58378;-58
2023/10/04 09:46:09;;;;;;;11.10;6.60;;;;;;;19.99;48.57;100693.75;109355;1251;74814;-57
2023/10/04 09:48:37;;;;;;;14.50;6.60;;;;;;;20.00;48.71;100690.39;109256;1254;61844;-58
2023/10/04 09:54:09;;;;;;;15.90;7.90;;;;;;;19.87;49.03;100699.34;102623;1288;600974;-57
2023/10/04 09:56:44;;;;;;;19.70;6.90;;;;;;;20.04;48.68;100699.22;104263;1266;59743;-58
2023/10/04 09:59:19;;;;;;;13.20;6.70;;;;;;;20.03;48.88;100700.40;104454;1269;59343;-58
2023/10/04 10:01:56;;;;;;;14.80;6.80;;;;;;;20.00;49.01;100700.95;104838;1265;72642;-59
2023/10/04 10:04:28;;;;;;;11.70;6.50;;;;;;;19.99;49.33;100710.67;105494;1264;60282;-58
2023/10/04 10:07:06;;;;;;;10.70;6.20;;;;;;;20.00;49.29;100707.52;104640;1262;313139;-57
2023/10/04 10:09:35;;;;;;;11.00;6.90;;;;;;;20.00;49.28;100705.38;105328;1262;59215;-60
2023/10/04 10:12:23;;;;;;;15.20;7.60;;;;;;;20.01;49.43;100705.44;105046;1260;59270;-60
2023/10/04 10:14:51;;;;;;;11.70;6.80;;;;;;;20.03;49.57;100711.48;105679;1263;63708;-65
2023/10/04 10:17:18;;;;;;;12.40;6.70;;;;;;;20.04;49.74;100714.51;105687;1262;60801;-57
2023/10/04 10:19:46;;;;;;;11.10;6.30;;;;;;;20.06;49.97;100714.53;105876;1258;66051;-51
2023/10/04 10:22:16;;;;;;;11.80;6.40;;;;;;;20.10;50.15;100711.94;105351;1253;62336;-57
2023/10/04 10:25:10;;;;;;;15.90;6.80;;;;;;;20.14;49.98;100711.90;105389;1253;59820;-56
2023/10/04 10:27:37;;;;;;;14.10;6.80;;;;;;;20.24;49.95;100719.05;106230;1258;64640;-57
2023/10/04 10:30:07;;;;;;;12.50;6.60;;;;;;;20.32;49.85;100721.59;105294;1258;60334;-57
2023/10/04 10:32:35;;;;;;;15.50;6.80;;;;;;;20.41;49.58;100725.28;107875;1254;64523;-60
2023/10/04 10:35:04;;;;;;;11.60;6.60;;;;;;;20.45;49.22;100730.79;105196;1253;59731;-60
2023/10/04 10:37:38;;;;;;;10.40;6.60;;;;;;;20.48;49.43;100724.77;106424;1254;59651;-59
2023/10/04 10:40:09;;;;;;;16.20;6.60;;;;;;;20.53;49.26;100721.20;105261;1257;64602;-60
2023/10/04 10:43:08;;;;;;;12.50;5.30;;;;;;;20.57;48.91;100727.79;109122;1253;64026;-62
2023/10/04 10:45:35;;;;;;;10.30;6.00;;;;;;;20.62;48.77;100720.47;109163;1253;64367;-57
2023/10/04 10:48:08;;;;;;;12.80;6.10;;;;;;;20.67;48.90;100721.67;106355;1254;59691;-59
2023/10/04 10:50:40;;;;;;;12.40;6.60;;;;;;;20.74;48.60;100722.77;105535;1254;62150;-59
2023/10/04 10:53:11;;;;;;;11.80;6.50;;;;;;;20.78;48.44;100722.31;105384;1253;63232;-58
2023/10/04 10:55:39;;;;;;;13.10;6.60;;;;;;;20.82;48.53;100725.78;105350;1253;71574;-56
2023/10/04 10:58:10;;;;;;;12.50;6.30;;;;;;;20.86;48.36;100729.42;105516;1258;71520;-61
2023/10/04 11:00:38;;;;;;;12.40;5.80;;;;;;;20.89;48.24;100734.75;105481;1259;59619;-60
2023/10/04 11:03:09;;;;;;;11.70;5.60;;;;;;;20.94;48.18;100745.09;105562;1256;59680;-60
2023/10/04 11:05:37;;;;;;;12.90;5.70;;;;;;;20.97;47.86;100749.55;105395;1258;64272;-61
2023/10/04 11:08:08;;;;;;;12.90;5.90;;;;;;;20.98;47.76;100755.33;105493;1257;61704;-60
2023/10/04 11:10:38;;;;;;;9.40;5.40;;;;;;;20.99;47.91;100757.77;105426;1254;62535;-61
2023/10/04 11:13:09;;;;;;;9.60;5.10;;;;;;;20.99;47.70;100761.13;105587;1257;59631;-62
2023/10/04 11:15:37;;;;;;;14.20;6.20;;;;;;;21.01;47.78;100764.29;106444;1258;59603;-66
2023/10/04 11:18:06;;;;;;;10.80;5.20;;;;;;;20.99;47.64;100767.85;105516;1259;65178;-61
2023/10/04 11:20:37;;;;;;;8.80;4.70;;;;;;;20.95;47.89;100768.58;105545;1258;62247;-57
2023/10/04 11:23:06;;;;;;;16.70;5.20;;;;;;;20.92;48.06;100765.48;105271;1258;62693;-62
2023/10/04 11:25:33;;;;;;;11.50;5.90;;;;;;;20.87;48.32;100777.58;105646;1259;59721;-60
2023/10/04 11:28:00;;;;;;;9.90;5.10;;;;;;;20.86;48.22;100784.47;105118;1260;59641;-62